Time;durP1;ratioP1;P1;durP2;ratioP2;P2;SDS_P1;SDS_P2;PMS_P1;PMS_P2;Temp;Humidity;BMP_temperature;BMP_pressure;BME280_temperature;BME280_humidity;BME280_pressure;Samples;Min_cycle;Max_cycle;Signal;HPM_P1;HPM_P2
2022/07/04 00:00:46;;;;;;;1.02;0.57;;;18.70;65.30;;;;;;5038164;28;20543;-71
2022/07/04 00:03:12;;;;;;;0.60;0.60;;;18.60;65.40;;;;;;5047737;28;20025;-71
2022/07/04 00:05:38;;;;;;;0.47;0.47;;;18.60;65.50;;;;;;5043540;28;20481;-71
2022/07/04 00:08:04;;;;;;;0.70;0.70;;;18.50;65.50;;;;;;5039751;28;20870;-71
2022/07/04 00:10:29;;;;;;;0.90;0.60;;;18.50;65.50;;;;;;5030029;28;20056;-64
2022/07/04 00:12:56;;;;;;;0.68;0.50;;;18.50;65.60;;;;;;5048548;28;20021;-64
2022/07/04 00:15:22;;;;;;;2.15;0.68;;;18.40;65.70;;;;;;5038076;28;20091;-70
2022/07/04 00:17:49;;;;;;;0.75;0.75;;;18.40;65.80;;;;;;5030139;28;20044;-71
2022/07/04 00:20:14;;;;;;;3.03;0.57;;;18.30;65.90;;;;;;5040733;28;20044;-70
2022/07/04 00:22:40;;;;;;;2.00;0.63;;;18.30;65.90;;;;;;5042782;28;20052;-71
2022/07/04 00:25:06;;;;;;;0.45;0.45;;;18.20;66.00;;;;;;5030740;28;20028;-65
2022/07/04 00:27:32;;;;;;;1.05;0.77;;;18.20;66.10;;;;;;5030091;28;20032;-65
2022/07/04 00:29:58;;;;;;;0.85;0.60;;;18.10;66.20;;;;;;5029210;28;20021;-64
2022/07/04 00:32:24;;;;;;;0.77;0.50;;;18.10;66.20;;;;;;5013534;28;20063;-65
2022/07/04 00:34:49;;;;;;;0.57;0.57;;;18.00;66.30;;;;;;5046619;28;20036;-65
2022/07/04 00:37:15;;;;;;;0.60;0.60;;;18.00;66.40;;;;;;5047135;28;20107;-65
2022/07/04 00:39:41;;;;;;;0.80;0.40;;;17.90;66.50;;;;;;5047349;28;20036;-71
2022/07/04 00:42:07;;;;;;;0.65;0.65;;;17.90;66.70;;;;;;5048004;28;20435;-72
2022/07/04 00:44:36;;;;;;;0.43;0.43;;;17.90;66.80;;;;;;5046804;28;20044;-65
2022/07/04 00:47:05;;;;;;;3.45;1.20;;;17.80;66.70;;;;;;5019240;28;20048;-65
2022/07/04 00:49:31;;;;;;;0.60;0.60;;;17.80;66.80;;;;;;5035456;28;20053;-65
2022/07/04 00:51:58;;;;;;;0.52;0.50;;;17.70;66.80;;;;;;5044147;28;20030;-65
2022/07/04 00:54:27;;;;;;;1.35;0.50;;;17.70;66.80;;;;;;5047534;28;20028;-65
2022/07/04 00:56:54;;;;;;;0.50;0.47;;;17.70;66.80;;;;;;5040434;28;20017;-65
2022/07/04 00:59:19;;;;;;;2.13;0.70;;;17.60;66.70;;;;;;5035549;28;20030;-72
2022/07/04 01:01:45;;;;;;;0.57;0.57;;;17.60;66.80;;;;;;5042807;28;20048;-72
2022/07/04 01:04:11;;;;;;;0.47;0.47;;;17.60;66.90;;;;;;5046502;28;20476;-72
2022/07/04 01:06:37;;;;;;;0.90;0.55;;;17.50;66.90;;;;;;5046979;28;20086;-71
2022/07/04 01:09:04;;;;;;;1.00;0.73;;;17.50;66.90;;;;;;5047952;28;20029;-71
2022/07/04 01:11:30;;;;;;;0.52;0.52;;;17.50;67.00;;;;;;5029818;28;20078;-71
2022/07/04 01:13:57;;;;;;;0.77;0.75;;;17.40;67.00;;;;;;5047590;28;20033;-72
2022/07/04 01:16:25;;;;;;;1.70;0.80;;;17.40;67.10;;;;;;5048191;28;20029;-72
2022/07/04 01:18:52;;;;;;;0.40;0.40;;;17.30;67.10;;;;;;5048144;28;20021;-72
2022/07/04 01:21:18;;;;;;;0.40;0.40;;;17.30;67.20;;;;;;5025344;28;20111;-71
2022/07/04 01:23:43;;;;;;;0.80;0.60;;;17.30;67.20;;;;;;5027373;28;20151;-72
2022/07/04 01:26:09;;;;;;;3.80;1.00;;;17.30;67.80;;;;;;5026471;28;20128;-71
2022/07/04 01:28:35;;;;;;;1.35;0.80;;;17.30;67.20;;;;;;5021022;28;20049;-66
2022/07/04 01:31:01;;;;;;;0.90;0.75;;;17.30;67.20;;;;;;5021652;28;20108;-65
2022/07/04 01:33:26;;;;;;;1.83;1.02;;;17.20;67.20;;;;;;5018444;28;20091;-65
2022/07/04 01:35:52;;;;;;;0.70;0.70;;;17.20;67.30;;;;;;5026997;28;20034;-65
2022/07/04 01:38:18;;;;;;;0.50;0.40;;;17.20;67.40;;;;;;5027577;28;20484;-65
2022/07/04 01:40:44;;;;;;;0.40;0.40;;;17.20;67.40;;;;;;5025944;28;20416;-66
2022/07/04 01:43:09;;;;;;;0.63;0.60;;;17.10;67.50;;;;;;5014743;28;20140;-65
2022/07/04 01:45:37;;;;;;;0.40;0.40;;;17.10;67.60;;;;;;5025151;28;20025;-65
2022/07/04 01:48:07;;;;;;;0.43;0.43;;;17.10;67.70;;;;;;5016979;28;20026;-65
2022/07/04 01:50:34;;;;;;;0.40;0.38;;;17.10;67.60;;;;;;5016405;28;20030;-65
2022/07/04 01:53:00;;;;;;;0.73;0.50;;;17.10;67.70;;;;;;5022261;28;20484;-65
2022/07/04 01:55:26;;;;;;;1.60;0.93;;;17.00;67.60;;;;;;5024556;28;20026;-65
2022/07/04 01:57:51;;;;;;;0.90;0.63;;;17.00;67.70;;;;;;5018404;28;20463;-65
2022/07/04 02:03:01;;;;;;;1.30;0.55;;;16.90;68.00;;;;;;5024974;28;20091;-65
2022/07/04 02:05:27;;;;;;;0.43;0.40;;;16.90;68.00;;;;;;5026961;28;20037;-66
2022/07/04 02:07:53;;;;;;;1.23;1.10;;;16.90;68.10;;;;;;5029919;28;20044;-66
2022/07/04 02:10:18;;;;;;;0.40;0.40;;;16.90;68.10;;;;;;5019930;28;20477;-65
2022/07/04 02:13:03;;;;;;;0.82;0.40;;;16.80;68.10;;;;;;5029492;28;20029;-65
2022/07/04 02:15:28;;;;;;;0.60;0.52;;;16.80;68.10;;;;;;5031019;28;20022;-72
2022/07/04 02:17:55;;;;;;;0.50;0.30;;;16.80;68.30;;;;;;5020190;28;20477;-72
2022/07/04 02:20:20;;;;;;;0.52;0.52;;;16.70;68.30;;;;;;5030698;28;20033;-72
2022/07/04 02:22:46;;;;;;;0.52;0.50;;;16.70;68.40;;;;;;5034395;28;20549;-72
2022/07/04 02:25:12;;;;;;;1.50;0.70;;;16.70;68.40;;;;;;5033056;28;20041;-71
2022/07/04 02:27:38;;;;;;;0.50;0.50;;;16.60;68.50;;;;;;5050841;28;20078;-71
2022/07/04 02:30:05;;;;;;;3.95;0.85;;;16.60;68.50;;;;;;5032680;28;20456;-71
2022/07/04 02:32:31;;;;;;;0.77;0.77;;;16.60;68.60;;;;;;5049996;28;20056;-72
2022/07/04 02:34:56;;;;;;;2.45;0.60;;;16.60;68.70;;;;;;5042405;28;20071;-72
2022/07/04 02:37:22;;;;;;;2.17;0.82;;;16.50;68.60;;;;;;5040914;28;20144;-71
2022/07/04 02:39:48;;;;;;;3.20;0.60;;;16.50;68.60;;;;;;5048231;28;20041;-71
2022/07/04 02:42:14;;;;;;;0.57;0.40;;;16.50;68.60;;;;;;5050263;28;20444;-66
2022/07/04 02:44:41;;;;;;;1.90;0.82;;;16.40;68.70;;;;;;5050113;28;20041;-66
2022/07/04 02:47:07;;;;;;;0.93;0.50;;;16.40;68.70;;;;;;5029441;28;20029;-66
2022/07/04 02:49:32;;;;;;;0.55;0.50;;;16.40;68.80;;;;;;5050538;28;20445;-66
2022/07/04 02:51:58;;;;;;;1.67;1.13;;;16.40;68.80;;;;;;5035543;28;20048;-66
2022/07/04 02:54:24;;;;;;;1.45;0.80;;;16.40;68.90;;;;;;5032142;28;20017;-65
2022/07/04 02:56:49;;;;;;;0.88;0.57;;;16.40;68.90;;;;;;5041847;28;20443;-65
2022/07/04 02:59:15;;;;;;;0.40;0.40;;;16.30;68.80;;;;;;5050146;28;20033;-66
2022/07/04 03:01:40;;;;;;;0.30;0.30;;;16.30;68.80;;;;;;5039127;28;20029;-65
2022/07/04 03:04:06;;;;;;;0.65;0.60;;;16.30;68.80;;;;;;5046633;28;20033;-65
2022/07/04 03:06:32;;;;;;;0.43;0.43;;;16.30;69.00;;;;;;5048850;28;21007;-66
2022/07/04 03:08:58;;;;;;;0.40;0.40;;;16.30;68.90;;;;;;5048931;28;20123;-66
2022/07/04 03:11:23;;;;;;;1.13;0.80;;;16.20;68.90;;;;;;5031852;28;20432;-66
2022/07/04 03:13:49;;;;;;;3.90;0.95;;;16.20;69.10;;;;;;5036154;28;20429;-65
2022/07/04 03:16:15;;;;;;;0.77;0.55;;;16.20;69.20;;;;;;5040145;28;20443;-71
2022/07/04 03:18:40;;;;;;;2.15;0.50;;;16.20;69.20;;;;;;5048755;28;20479;-71
2022/07/04 03:21:06;;;;;;;0.95;0.77;;;16.20;69.30;;;;;;5048829;28;20029;-71
2022/07/04 03:23:33;;;;;;;0.70;0.50;;;16.10;69.20;;;;;;5049381;28;20507;-72
2022/07/04 03:25:59;;;;;;;0.50;0.50;;;16.10;69.30;;;;;;5049613;28;20032;-72
2022/07/04 03:28:25;;;;;;;0.93;0.60;;;16.20;69.30;;;;;;5043042;28;20040;-72
2022/07/04 03:30:51;;;;;;;0.80;0.60;;;16.20;69.20;;;;;;5049232;28;20021;-72
2022/07/04 03:33:17;;;;;;;0.55;0.47;;;16.10;69.20;;;;;;5035586;28;20037;-72
2022/07/04 03:35:42;;;;;;;2.97;0.90;;;16.10;69.20;;;;;;5048995;28;20029;-72
2022/07/04 03:38:08;;;;;;;1.75;0.57;;;16.10;69.30;;;;;;5049049;28;20104;-72
2022/07/04 03:40:35;;;;;;;0.82;0.70;;;16.10;69.40;;;;;;5048970;28;20091;-72
2022/07/04 03:43:02;;;;;;;0.52;0.40;;;16.10;69.40;;;;;;5036590;28;20037;-72
2022/07/04 03:45:27;;;;;;;0.60;0.60;;;16.10;69.40;;;;;;5031106;28;20119;-72
2022/07/04 03:47:53;;;;;;;0.60;0.60;;;16.10;69.60;;;;;;5041360;28;20152;-71
2022/07/04 03:50:19;;;;;;;0.50;0.50;;;16.00;69.50;;;;;;5036753;28;20490;-72
2022/07/04 03:52:45;;;;;;;4.03;0.60;;;16.00;69.50;;;;;;5041876;28;20034;-72
2022/07/04 03:55:11;;;;;;;0.50;0.50;;;16.00;69.60;;;;;;5045433;28;20033;-71
2022/07/04 03:57:36;;;;;;;1.80;0.50;;;16.00;69.70;;;;;;5034674;28;20033;-72
2022/07/04 04:00:04;;;;;;;0.68;0.55;;;16.00;69.80;;;;;;5043687;28;20325;-72
2022/07/04 04:02:29;;;;;;;0.70;0.60;;;16.10;69.90;;;;;;5044906;28;20087;-71
2022/07/04 04:07:39;;;;;;;2.65;0.82;;;16.10;69.90;;;;;;5046891;28;20044;-71
2022/07/04 04:10:05;;;;;;;0.65;0.65;;;16.10;70.00;;;;;;5027564;28;20472;-71
2022/07/04 04:12:31;;;;;;;0.85;0.70;;;16.10;70.10;;;;;;5030315;28;20029;-72
2022/07/04 04:14:57;;;;;;;1.23;0.70;;;16.10;70.10;;;;;;5030798;28;20047;-71
2022/07/04 04:17:22;;;;;;;0.55;0.52;;;16.20;70.10;;;;;;5048666;28;20029;-71
2022/07/04 04:19:48;;;;;;;0.60;0.60;;;16.20;70.10;;;;;;5046448;28;20218;-71
2022/07/04 04:22:14;;;;;;;2.60;0.80;;;16.20;70.10;;;;;;5028243;28;20049;-72
2022/07/04 04:24:40;;;;;;;8.82;0.57;;;16.30;70.20;;;;;;5048445;28;20041;-71
2022/07/04 04:27:05;;;;;;;1.55;0.50;;;16.30;70.20;;;;;;5045659;28;20095;-65
2022/07/04 04:29:31;;;;;;;0.47;0.47;;;16.40;70.40;;;;;;5030183;28;20393;-65
2022/07/04 04:31:57;;;;;;;0.60;0.60;;;16.40;70.60;;;;;;5021625;28;20022;-65
2022/07/04 04:34:26;;;;;;;1.05;0.95;;;16.40;70.70;;;;;;5043204;28;20107;-72
2022/07/04 04:36:51;;;;;;;1.52;0.77;;;16.50;70.60;;;;;;5028417;28;20152;-71
2022/07/04 04:39:17;;;;;;;0.50;0.50;;;16.60;70.80;;;;;;5048016;28;20527;-72
2022/07/04 04:41:42;;;;;;;0.93;0.90;;;16.60;70.80;;;;;;5044006;28;20074;-72
2022/07/04 04:44:08;;;;;;;0.52;0.52;;;16.70;70.80;;;;;;5046420;28;20112;-71
2022/07/04 04:46:34;;;;;;;1.02;0.98;;;16.80;70.90;;;;;;5029221;28;20061;-71
2022/07/04 04:48:59;;;;;;;2.85;0.85;;;16.90;70.80;;;;;;5047446;28;20021;-72
2022/07/04 04:51:25;;;;;;;1.45;1.05;;;16.90;70.80;;;;;;5027459;28;20036;-71
2022/07/04 04:53:51;;;;;;;1.15;0.77;;;17.00;70.80;;;;;;5045014;28;20394;-71
2022/07/04 04:56:16;;;;;;;1.77;1.30;;;17.10;71.00;;;;;;5029368;28;20029;-71
2022/07/04 04:58:42;;;;;;;1.92;0.82;;;17.10;71.20;;;;;;5027747;28;20040;-66
2022/07/04 05:01:08;;;;;;;1.27;1.05;;;17.20;71.30;;;;;;5046263;28;20033;-70
2022/07/04 05:03:34;;;;;;;1.48;1.10;;;17.20;71.30;;;;;;5045001;28;20391;-70
2022/07/04 05:06:00;;;;;;;1.25;1.15;;;17.30;71.30;;;;;;5029423;28;20029;-71
2022/07/04 05:08:26;;;;;;;4.47;1.67;;;17.40;71.30;;;;;;5026774;28;20037;-70
2022/07/04 05:10:52;;;;;;;2.20;1.65;;;17.40;71.70;;;;;;5039777;28;20029;-70
2022/07/04 05:13:18;;;;;;;2.80;1.50;;;17.50;71.60;;;;;;5024396;28;20494;-70
2022/07/04 05:15:44;;;;;;;1.45;1.35;;;17.50;71.60;;;;;;5046929;28;20032;-71
2022/07/04 05:18:10;;;;;;;1.40;1.30;;;17.60;71.80;;;;;;5046829;28;20443;-71
2022/07/04 05:20:36;;;;;;;2.30;1.77;;;17.60;71.70;;;;;;5029040;28;20112;-70
2022/07/04 05:23:01;;;;;;;1.75;1.27;;;17.70;71.70;;;;;;5028072;28;20049;-71
2022/07/04 05:25:27;;;;;;;4.50;1.75;;;17.80;71.50;;;;;;5046989;28;20099;-70
2022/07/04 05:27:53;;;;;;;3.30;1.95;;;17.90;71.60;;;;;;5044339;28;20033;-70
2022/07/04 05:30:18;;;;;;;2.50;1.60;;;18.00;71.50;;;;;;5029322;28;20112;-71
2022/07/04 05:32:44;;;;;;;2.45;1.50;;;18.10;71.40;;;;;;5046552;28;20029;-70
2022/07/04 05:35:10;;;;;;;1.83;1.73;;;18.10;71.30;;;;;;5043312;28;20084;-71
2022/07/04 05:37:35;;;;;;;2.35;1.63;;;18.20;71.20;;;;;;5038117;28;20031;-71
2022/07/04 05:40:03;;;;;;;1.30;1.20;;;18.30;71.20;;;;;;5046866;28;20033;-71
2022/07/04 05:42:28;;;;;;;1.25;1.15;;;18.30;70.90;;;;;;5041204;28;20029;-71
2022/07/04 05:44:54;;;;;;;0.80;0.68;;;18.40;70.80;;;;;;5047786;28;20380;-70
2022/07/04 05:47:23;;;;;;;1.60;1.40;;;18.50;70.70;;;;;;5049881;28;20021;-71
2022/07/04 05:49:49;;;;;;;2.08;1.60;;;18.50;70.70;;;;;;5046935;28;20136;-71
2022/07/04 05:52:15;;;;;;;3.60;1.70;;;18.50;70.70;;;;;;5047599;28;20048;-71
2022/07/04 05:54:41;;;;;;;1.90;1.15;;;18.50;71.00;;;;;;5050234;28;20364;-70
2022/07/04 05:57:07;;;;;;;2.10;1.55;;;18.50;71.20;;;;;;5030682;28;20047;-71
2022/07/04 05:59:32;;;;;;;2.72;1.85;;;18.50;71.40;;;;;;5048236;28;20395;-70
2022/07/04 06:01:58;;;;;;;1.48;1.30;;;18.50;71.50;;;;;;5049847;28;20056;-70
2022/07/04 06:04:24;;;;;;;4.93;1.98;;;18.60;71.30;;;;;;5047553;28;20064;-71
2022/07/04 06:06:50;;;;;;;2.15;1.17;;;18.70;71.20;;;;;;5025269;28;20025;-71
2022/07/04 06:09:15;;;;;;;2.17;1.30;;;18.80;71.20;;;;;;5044670;28;20021;-71
2022/07/04 06:11:41;;;;;;;1.52;1.17;;;18.80;71.00;;;;;;5045059;28;20040;-71
2022/07/04 06:14:07;;;;;;;2.83;1.95;;;18.90;71.00;;;;;;5045570;28;20025;-70
2022/07/04 06:16:32;;;;;;;2.45;1.25;;;19.00;70.50;;;;;;5024663;28;20275;-71
2022/07/04 06:18:58;;;;;;;1.98;1.73;;;19.20;70.40;;;;;;5043482;28;20059;-71
2022/07/04 06:21:23;;;;;;;4.40;1.65;;;19.30;70.30;;;;;;5042663;28;20487;-71
2022/07/04 06:23:49;;;;;;;3.05;1.60;;;19.30;70.20;;;;;;5040463;28;20025;-71
2022/07/04 06:26:15;;;;;;;1.45;0.90;;;19.30;69.90;;;;;;5047115;28;20459;-71
2022/07/04 06:28:41;;;;;;;2.28;1.08;;;19.40;69.80;;;;;;5031019;28;20097;-71
2022/07/04 06:31:06;;;;;;;2.35;1.08;;;19.40;69.40;;;;;;5042138;28;20025;-71
2022/07/04 06:33:32;;;;;;;4.57;1.38;;;19.40;69.40;;;;;;5023492;28;20036;-71
2022/07/04 06:35:58;;;;;;;0.98;0.65;;;19.40;69.20;;;;;;5030760;28;20032;-71
2022/07/04 06:38:28;;;;;;;1.25;0.98;;;19.40;69.10;;;;;;5046199;28;20052;-71
2022/07/04 06:40:58;;;;;;;1.83;1.10;;;19.40;68.90;;;;;;5042312;28;20091;-71
2022/07/04 06:43:25;;;;;;;2.15;0.80;;;19.40;68.60;;;;;;5044985;28;20032;-71
2022/07/04 06:45:52;;;;;;;1.08;0.90;;;19.40;68.70;;;;;;5047395;28;20025;-72
2022/07/04 06:48:18;;;;;;;1.92;1.17;;;19.50;68.40;;;;;;5043957;28;20033;-71
2022/07/04 06:50:45;;;;;;;1.08;1.00;;;19.60;68.00;;;;;;5045991;28;20021;-71
2022/07/04 06:53:11;;;;;;;2.28;1.20;;;19.60;68.00;;;;;;5029581;28;20044;-71
2022/07/04 06:55:38;;;;;;;1.20;1.02;;;19.60;68.00;;;;;;5045920;28;20140;-70
2022/07/04 06:58:04;;;;;;;6.82;1.17;;;19.60;68.00;;;;;;5043709;28;20038;-71
2022/07/04 07:00:30;;;;;;;1.15;1.05;;;19.70;67.90;;;;;;5028919;28;20024;-70
2022/07/04 07:02:57;;;;;;;1.40;1.13;;;19.80;67.60;;;;;;5045116;28;20365;-64
2022/07/04 07:05:24;;;;;;;0.60;0.60;;;19.70;67.40;;;;;;5039834;28;20095;-64
2022/07/04 07:07:50;;;;;;;2.40;1.23;;;19.70;67.70;;;;;;5043628;28;20544;-64
2022/07/04 07:10:16;;;;;;;1.42;1.27;;;19.80;67.80;;;;;;5028138;28;20108;-64
2022/07/04 07:12:42;;;;;;;2.47;1.90;;;19.80;67.50;;;;;;5047277;28;20029;-64
2022/07/04 07:15:08;;;;;;;1.90;1.38;;;19.90;67.50;;;;;;5027141;28;20059;-64
2022/07/04 07:17:34;;;;;;;2.65;1.25;;;20.00;67.40;;;;;;5046115;28;20047;-64
2022/07/04 07:19:59;;;;;;;3.42;1.55;;;20.10;67.40;;;;;;5030148;28;20033;-64
2022/07/04 07:22:25;;;;;;;1.33;1.00;;;20.20;67.10;;;;;;5043710;28;20045;-64
2022/07/04 07:24:51;;;;;;;5.07;1.67;;;20.30;66.90;;;;;;5047537;28;20586;-64
2022/07/04 07:27:17;;;;;;;4.47;1.60;;;20.30;66.70;;;;;;5030205;28;20509;-64
2022/07/04 07:29:42;;;;;;;2.25;1.38;;;20.40;66.80;;;;;;5042303;28;20087;-64
2022/07/04 07:32:08;;;;;;;1.25;1.15;;;20.40;66.80;;;;;;5043196;28;20029;-64
2022/07/04 07:34:34;;;;;;;5.05;1.55;;;20.40;67.00;;;;;;5047325;28;20404;-64
2022/07/04 07:37:00;;;;;;;1.67;1.15;;;20.40;66.80;;;;;;5030198;28;20021;-64
2022/07/04 07:39:26;;;;;;;2.05;1.58;;;20.60;66.70;;;;;;5042968;28;20025;-64
2022/07/04 07:41:51;;;;;;;1.98;1.75;;;20.70;66.70;;;;;;5042901;28;20047;-64
2022/07/04 07:44:17;;;;;;;3.20;1.70;;;20.70;66.60;;;;;;5046930;28;20033;-64
2022/07/04 07:46:43;;;;;;;5.15;1.20;;;20.70;66.60;;;;;;5043633;28;20542;-64
2022/07/04 07:49:08;;;;;;;3.03;1.48;;;20.70;66.70;;;;;;5046693;28;20017;-64
2022/07/04 07:51:34;;;;;;;7.95;1.88;;;20.70;67.00;;;;;;5042288;28;20056;-64
2022/07/04 07:54:00;;;;;;;3.20;1.73;;;20.80;67.10;;;;;;5039350;28;20029;-64
2022/07/04 07:56:26;;;;;;;2.25;1.48;;;20.90;66.80;;;;;;5013650;28;20036;-64
2022/07/04 07:58:52;;;;;;;2.05;1.63;;;21.00;66.80;;;;;;5039481;28;20546;-64
2022/07/04 08:01:18;;;;;;;3.35;1.48;;;21.10;66.70;;;;;;5045245;28;20040;-64
2022/07/04 08:06:28;;;;;;;1.77;1.60;;;21.10;66.30;;;;;;5042499;28;20040;-64
2022/07/04 08:08:54;;;;;;;5.63;1.40;;;21.00;66.50;;;;;;5039965;28;20029;-64
2022/07/04 08:11:20;;;;;;;12.63;2.00;;;21.00;66.60;;;;;;5038141;28;20029;-64
2022/07/04 08:13:45;;;;;;;2.90;1.80;;;21.10;66.60;;;;;;5038058;28;20732;-64
2022/07/04 08:16:11;;;;;;;2.40;1.80;;;21.30;66.60;;;;;;5042560;28;20029;-64
2022/07/04 08:18:37;;;;;;;3.28;1.75;;;21.40;66.20;;;;;;5044233;28;20033;-64
2022/07/04 08:21:03;;;;;;;2.65;1.55;;;21.40;66.10;;;;;;5043116;28;20040;-64
2022/07/04 08:23:30;;;;;;;6.28;0.90;;;21.40;66.20;;;;;;5042401;28;20032;-64
2022/07/04 08:25:57;;;;;;;5.95;1.52;;;21.60;65.90;;;;;;5030498;28;20041;-64
2022/07/04 08:28:23;;;;;;;3.65;2.10;;;21.70;65.80;;;;;;5035002;28;20025;-71
2022/07/04 08:30:49;;;;;;;2.28;1.17;;;21.70;65.50;;;;;;5041086;28;20037;-71
2022/07/04 08:33:14;;;;;;;1.70;1.60;;;21.70;65.70;;;;;;5041502;28;20033;-70
2022/07/04 08:35:40;;;;;;;3.35;1.42;;;21.60;65.70;;;;;;5033340;28;20037;-70
2022/07/04 08:38:06;;;;;;;2.22;1.83;;;21.70;65.70;;;;;;5023899;28;20045;-71
2022/07/04 08:40:33;;;;;;;2.30;1.58;;;21.70;65.70;;;;;;5043052;28;20139;-70
2022/07/04 08:43:02;;;;;;;2.60;1.70;;;21.80;65.70;;;;;;5027359;28;20021;-71
2022/07/04 08:45:30;;;;;;;1.33;1.23;;;21.90;65.60;;;;;;5043902;28;20463;-69
2022/07/04 08:48:01;;;;;;;2.83;1.50;;;21.90;65.30;;;;;;5025237;28;21212;-70
2022/07/04 08:50:33;;;;;;;2.08;1.88;;;21.90;65.20;;;;;;5042195;28;20447;-70
2022/07/04 08:53:02;;;;;;;4.63;1.92;;;22.00;65.30;;;;;;5039047;28;20108;-70
2022/07/04 08:58:26;;;;;;;1.83;1.60;;;22.00;65.30;;;;;;5042827;28;20412;-69
2022/07/04 09:00:53;;;;;;;9.82;2.53;;;22.00;65.10;;;;;;5041983;28;20029;-69
2022/07/04 09:03:20;;;;;;;2.15;1.85;;;22.00;65.20;;;;;;5043774;28;20033;-69
2022/07/04 09:05:45;;;;;;;2.72;1.92;;;22.00;64.90;;;;;;5031705;28;20037;-69
2022/07/04 09:08:11;;;;;;;5.05;2.20;;;22.00;64.80;;;;;;5017859;28;20427;-69
2022/07/04 09:10:37;;;;;;;2.72;2.03;;;22.00;64.80;;;;;;5022010;28;20495;-69
2022/07/04 09:13:05;;;;;;;2.30;2.03;;;22.00;64.80;;;;;;5026144;28;20060;-69
2022/07/04 09:15:32;;;;;;;4.32;1.55;;;22.20;64.60;;;;;;5028807;28;20032;-69
2022/07/04 09:17:59;;;;;;;2.78;1.23;;;22.40;64.40;;;;;;5024476;28;20028;-69
2022/07/04 09:20:26;;;;;;;3.45;1.50;;;22.50;64.10;;;;;;5042449;28;20056;-69
2022/07/04 09:22:53;;;;;;;1.95;1.38;;;22.50;64.10;;;;;;5016031;28;20157;-69
2022/07/04 09:25:19;;;;;;;6.63;2.00;;;22.40;64.10;;;;;;5019493;28;20498;-69
2022/07/04 09:27:50;;;;;;;2.97;2.00;;;22.50;64.20;;;;;;5018166;28;20334;-69
2022/07/04 09:30:21;;;;;;;1.70;1.48;;;22.60;64.00;;;;;;5015899;28;20025;-69
2022/07/04 09:32:50;;;;;;;1.73;1.48;;;22.70;63.50;;;;;;5017960;28;20044;-69
2022/07/04 09:35:22;;;;;;;1.70;1.60;;;22.70;63.50;;;;;;5028443;28;20044;-70
2022/07/04 09:37:53;;;;;;;2.75;1.90;;;22.50;62.60;;;;;;5008723;28;20029;-71
2022/07/04 09:40:33;;;;;;;2.70;2.03;;;22.40;63.10;;;;;;5027081;28;20048;-70
2022/07/04 09:43:01;;;;;;;2.40;2.20;;;22.30;63.30;;;;;;5010729;28;20124;-70
2022/07/04 09:45:28;;;;;;;3.70;1.70;;;22.20;63.60;;;;;;5029350;28;20104;-70
2022/07/04 09:47:56;;;;;;;2.42;2.20;;;22.10;64.00;;;;;;5031992;28;20040;-70
2022/07/04 09:50:23;;;;;;;2.03;1.63;;;21.90;64.10;;;;;;5030322;28;20029;-70
2022/07/04 09:52:56;;;;;;;2.05;1.35;;;21.80;64.50;;;;;;5024572;28;20030;-71
2022/07/04 09:55:27;;;;;;;2.50;1.92;;;21.80;64.90;;;;;;5026261;28;20437;-71
2022/07/04 09:57:55;;;;;;;1.63;1.53;;;22.00;65.10;;;;;;5019657;28;20037;-70
2022/07/04 10:00:30;;;;;;;2.10;1.75;;;22.30;64.70;;;;;;5008108;28;20392;-70
2022/07/04 10:03:15;;;;;;;2.22;1.52;;;22.70;63.70;;;;;;5010006;28;20030;-71
2022/07/04 10:05:41;;;;;;;2.03;1.48;;;23.10;62.90;;;;;;5006179;28;20077;-70
2022/07/04 10:08:06;;;;;;;4.90;1.85;;;23.30;62.20;;;;;;5028090;28;20045;-70
2022/07/04 10:10:34;;;;;;;1.98;1.10;;;23.70;61.30;;;;;;5027507;28;20351;-71
2022/07/04 10:13:02;;;;;;;2.05;1.50;;;23.70;60.40;;;;;;5008563;28;20037;-70
2022/07/04 10:15:29;;;;;;;2.38;1.25;;;23.60;59.80;;;;;;5028035;28;20033;-71
2022/07/04 10:17:55;;;;;;;4.20;1.75;;;23.60;60.20;;;;;;5027327;28;20037;-70
2022/07/04 10:20:21;;;;;;;5.18;1.73;;;23.80;60.30;;;;;;5028099;28;20083;-71
2022/07/04 10:22:47;;;;;;;1.10;1.00;;;24.10;59.50;;;;;;5028558;28;20431;-71
2022/07/04 10:25:13;;;;;;;1.42;1.20;;;24.30;57.80;;;;;;5030021;28;20042;-70
2022/07/04 10:27:39;;;;;;;1.25;0.90;;;24.40;56.80;;;;;;5027985;28;20400;-70
2022/07/04 10:30:10;;;;;;;1.23;1.13;;;24.50;56.30;;;;;;5026901;28;20087;-71
2022/07/04 10:32:37;;;;;;;2.90;0.80;;;24.60;56.10;;;;;;5023065;28;20515;-70
2022/07/04 10:35:04;;;;;;;0.70;0.70;;;24.90;55.50;;;;;;5033504;28;20036;-71
2022/07/04 10:38:03;;;;;;;1.15;0.90;;;24.90;54.40;;;;;;5030197;28;20036;-70
2022/07/04 10:40:53;;;;;;;1.30;1.08;;;24.70;53.60;;;;;;5023235;28;20029;-70
2022/07/04 10:46:06;;;;;;;0.80;0.80;;;24.50;54.50;;;;;;5028748;28;20088;-70
2022/07/04 10:48:32;;;;;;;0.63;0.63;;;24.50;54.50;;;;;;5026376;28;20014;-70
2022/07/04 10:51:06;;;;;;;1.77;0.90;;;24.50;54.00;;;;;;5027301;28;20040;-70
2022/07/04 10:53:52;;;;;;;1.45;0.65;;;24.40;53.80;;;;;;5026260;28;20479;-70
2022/07/04 10:56:18;;;;;;;0.55;0.55;;;24.20;53.50;;;;;;5029309;28;20065;-71
2022/07/04 10:58:44;;;;;;;0.88;0.88;;;24.00;53.60;;;;;;5030306;28;20497;-70
2022/07/04 11:01:14;;;;;;;1.00;0.90;;;23.90;53.40;;;;;;5030154;28;20079;-71
2022/07/04 11:04:06;;;;;;;0.73;0.73;;;23.70;54.10;;;;;;5028241;28;20030;-69
2022/07/04 11:06:42;;;;;;;0.80;0.70;;;23.60;54.20;;;;;;5021261;28;20046;-71
2022/07/04 11:09:20;;;;;;;1.02;0.80;;;23.50;54.90;;;;;;5023975;28;20132;-65
2022/07/04 11:11:51;;;;;;;0.60;0.60;;;23.70;55.00;;;;;;5023553;28;20017;-65
2022/07/04 11:14:39;;;;;;;0.70;0.70;;;23.80;55.00;;;;;;5028225;28;20044;-64
2022/07/04 11:17:10;;;;;;;0.75;0.60;;;23.90;53.70;;;;;;5028667;28;20052;-65
2022/07/04 11:19:36;;;;;;;2.80;0.60;;;23.90;54.00;;;;;;5022498;28;20029;-64
2022/07/04 11:22:04;;;;;;;1.48;0.80;;;23.90;53.90;;;;;;5033758;28;20361;-64
2022/07/04 11:24:30;;;;;;;0.60;0.60;;;23.90;53.80;;;;;;5024204;28;20244;-65
2022/07/04 11:26:56;;;;;;;0.60;0.60;;;24.00;54.00;;;;;;5039094;28;20037;-65
2022/07/04 11:29:22;;;;;;;1.42;0.90;;;24.40;53.70;;;;;;5040103;28;20478;-70
2022/07/04 11:31:50;;;;;;;0.77;0.77;;;24.70;52.10;;;;;;5042079;28;20042;-70
2022/07/04 11:34:16;;;;;;;0.80;0.80;;;24.90;50.80;;;;;;5041993;28;20021;-70
2022/07/04 11:36:44;;;;;;;0.93;0.93;;;25.00;51.10;;;;;;5038132;28;20052;-70
2022/07/04 11:39:12;;;;;;;1.17;0.65;;;25.10;50.50;;;;;;5018206;28;20387;-70
2022/07/04 11:47:17;;;;;;;0.50;0.50;;;25.30;50.50;;;;;;5047351;28;20043;-70
2022/07/04 11:49:45;;;;;;;0.73;0.73;;;25.10;50.70;;;;;;5039912;28;20361;-68
2022/07/04 11:52:11;;;;;;;0.82;0.80;;;25.10;51.00;;;;;;5026228;28;20028;-71
2022/07/04 11:54:39;;;;;;;1.17;1.00;;;25.30;51.00;;;;;;5028532;28;20029;-70
2022/07/04 11:57:13;;;;;;;1.15;0.80;;;25.50;51.10;;;;;;5048309;28;20100;-70
2022/07/04 12:00:02;;;;;;;0.80;0.80;;;25.90;50.30;;;;;;5105309;27;20380;-70
2022/07/04 12:02:29;;;;;;;0.70;0.70;;;26.20;49.20;;;;;;5086160;28;20403;-65
2022/07/04 12:04:57;;;;;;;0.50;0.50;;;26.30;48.50;;;;;;5086276;28;20479;-65
2022/07/04 12:07:25;;;;;;;0.43;0.43;;;26.50;48.50;;;;;;5085175;28;20012;-64
2022/07/04 12:09:52;;;;;;;2.30;1.10;;;26.70;48.10;;;;;;5086121;28;20070;-64
2022/07/04 12:12:18;;;;;;;1.00;0.85;;;26.60;48.20;;;;;;5085918;28;20105;-65
2022/07/04 12:15:05;;;;;;;1.75;0.60;;;26.40;48.60;;;;;;5086242;28;20031;-70
2022/07/04 12:17:38;;;;;;;1.23;1.00;;;26.20;48.20;;;;;;5080411;28;20029;-70
2022/07/04 12:20:12;;;;;;;0.77;0.68;;;26.30;48.60;;;;;;5085638;28;20048;-70
2022/07/04 12:22:43;;;;;;;1.77;1.02;;;26.50;48.20;;;;;;5085442;28;20486;-69
2022/07/04 12:25:28;;;;;;;0.70;0.70;;;26.60;46.60;;;;;;5086316;28;20039;-70
2022/07/04 12:27:57;;;;;;;1.88;0.60;;;26.70;46.40;;;;;;5081835;28;20035;-70
2022/07/04 12:30:25;;;;;;;0.80;0.80;;;26.90;46.90;;;;;;5079920;28;20108;-70
2022/07/04 12:32:52;;;;;;;0.70;0.70;;;27.00;46.80;;;;;;5078567;28;20025;-70
2022/07/04 12:35:42;;;;;;;0.70;0.70;;;27.00;46.70;;;;;;5085635;28;20565;-71
2022/07/04 12:38:39;;;;;;;1.98;0.70;;;26.80;46.80;;;;;;5083929;28;20032;-70
2022/07/04 12:41:07;;;;;;;0.90;0.75;;;26.60;47.00;;;;;;5085775;28;20078;-71
2022/07/04 12:43:42;;;;;;;0.68;0.65;;;26.80;47.10;;;;;;5085113;28;20031;-69
2022/07/04 12:46:10;;;;;;;0.70;0.70;;;27.10;47.10;;;;;;5085852;28;20398;-70
2022/07/04 12:48:37;;;;;;;0.90;0.65;;;27.20;45.30;;;;;;5084348;28;20525;-70
2022/07/04 12:51:13;;;;;;;0.95;0.70;;;27.10;45.00;;;;;;5084425;28;20846;-70
2022/07/04 12:53:40;;;;;;;0.85;0.50;;;27.10;45.30;;;;;;5085330;28;20085;-70
2022/07/04 12:56:07;;;;;;;4.05;0.70;;;27.10;44.20;;;;;;5085252;28;20542;-70
2022/07/04 12:58:32;;;;;;;1.52;0.93;;;27.00;44.70;;;;;;5085043;28;20826;-70
2022/07/04 13:00:58;;;;;;;0.80;0.80;;;27.00;44.50;;;;;;5085256;28;20028;-69
2022/07/04 13:03:24;;;;;;;0.70;0.70;;;26.80;43.90;;;;;;5084648;28;20028;-70
2022/07/04 13:05:50;;;;;;;1.27;0.85;;;26.90;43.90;;;;;;5065922;28;20371;-69
2022/07/04 13:08:16;;;;;;;1.38;0.90;;;27.00;42.80;;;;;;5085752;28;20029;-65